createdAt,value
2019-05-01T00:01:08.680Z,9.20
2019-05-01T00:03:48.535Z,9.13
2019-05-01T00:06:21.565Z,11.57
2019-05-01T00:08:50.876Z,9.57
2019-05-01T00:11:20.169Z,10.60
2019-05-01T00:13:49.482Z,10.27
2019-05-01T00:16:18.763Z,10.83
2019-05-01T00:18:48.214Z,10.57
2019-05-01T00:21:17.581Z,12.57
2019-05-01T00:23:46.929Z,10.83
2019-05-01T00:26:16.391Z,11.73
2019-05-01T00:28:45.805Z,11.30
2019-05-01T00:31:15.323Z,11.40
2019-05-01T00:33:44.648Z,11.90
2019-05-01T00:36:13.975Z,10.70
2019-05-01T00:38:43.302Z,11.83
2019-05-01T00:41:12.583Z,10.53
2019-05-01T00:43:41.895Z,11.10
2019-05-01T00:46:11.317Z,9.67
2019-05-01T00:48:40.592Z,10.70
2019-05-01T00:51:10.022Z,9.90
2019-05-01T00:53:39.389Z,9.27
2019-05-01T00:56:23.738Z,9.27
2019-05-01T00:59:30.484Z,11.10
2019-05-01T01:02:09.760Z,10.23
2019-05-01T01:04:39.048Z,10.33
2019-05-01T01:07:08.567Z,9.90
2019-05-01T01:09:37.896Z,9.80
2019-05-01T01:12:07.290Z,9.87
2019-05-01T01:14:36.624Z,10.00
2019-05-01T01:17:05.915Z,10.17
2019-05-01T01:19:35.304Z,10.23
2019-05-01T01:22:04.595Z,11.70
2019-05-01T01:24:33.914Z,13.80
2019-05-01T01:27:03.426Z,10.90
2019-05-01T01:29:32.691Z,11.53
2019-05-01T01:32:01.980Z,11.00
2019-05-01T01:34:31.265Z,10.80
2019-05-01T01:37:00.603Z,11.40
2019-05-01T01:39:29.862Z,10.63
2019-05-01T01:41:59.389Z,10.93
2019-05-01T01:44:40.191Z,10.90
2019-05-01T01:47:13.068Z,10.50
2019-05-01T01:49:42.366Z,11.50
2019-05-01T01:52:11.985Z,11.20
2019-05-01T01:54:41.471Z,11.47
2019-05-01T01:57:11.165Z,10.07
2019-05-01T01:59:40.576Z,12.03
2019-05-01T02:02:28.880Z,10.27
2019-05-01T02:05:17.179Z,10.67
2019-05-01T02:07:46.580Z,10.23
2019-05-01T02:10:16.269Z,10.67
2019-05-01T02:12:45.712Z,9.70
2019-05-01T02:15:15.282Z,11.50
2019-05-01T02:17:44.559Z,11.17
2019-05-01T02:20:14.225Z,10.53
2019-05-01T02:22:43.610Z,11.43
2019-05-01T02:25:13.799Z,11.10
2019-05-01T02:27:52.666Z,10.77
2019-05-01T02:30:23.357Z,10.80
2019-05-01T02:32:55.486Z,10.10
2019-05-01T02:35:30.223Z,10.57
2019-05-01T02:37:58.359Z,11.50
2019-05-01T02:40:55.239Z,10.00
2019-05-01T02:43:27.533Z,12.03
2019-05-01T02:45:59.039Z,12.10
2019-05-01T02:48:32.212Z,11.17
2019-05-01T02:51:04.338Z,11.53
2019-05-01T02:53:37.323Z,12.10
2019-05-01T02:56:33.907Z,12.90
2019-05-01T02:59:06.081Z,11.80
2019-05-01T03:01:46.862Z,12.37
2019-05-01T03:04:10.615Z,12.03
2019-05-01T03:06:41.266Z,12.63
2019-05-01T03:09:10.876Z,12.80
2019-05-01T03:11:42.206Z,12.57
2019-05-01T03:14:16.902Z,11.77
2019-05-01T03:16:48.593Z,10.33
2019-05-01T03:19:38.355Z,11.00
2019-05-01T03:22:14.953Z,12.43
2019-05-01T03:24:44.279Z,10.80
2019-05-01T03:27:14.012Z,11.10
2019-05-01T03:29:43.429Z,11.00
2019-05-01T03:32:18.260Z,9.47
2019-05-01T03:34:43.796Z,10.37
2019-05-01T03:37:13.880Z,10.20
2019-05-01T03:39:43.344Z,10.40
2019-05-01T03:42:12.657Z,10.83
2019-05-01T03:44:42.467Z,10.70
2019-05-01T03:47:11.830Z,11.33
2019-05-01T03:49:41.376Z,10.03
2019-05-01T03:52:10.644Z,10.80
2019-05-01T03:54:40.066Z,10.70
2019-05-01T03:57:12.707Z,10.40
2019-05-01T03:59:41.442Z,10.43
2019-05-01T04:02:33.625Z,10.10
2019-05-01T04:04:56.997Z,10.50
2019-05-01T04:07:26.795Z,10.17
2019-05-01T04:09:56.107Z,11.43
2019-05-01T04:12:25.619Z,9.83
2019-05-01T04:14:55.252Z,11.37
2019-05-01T04:17:31.739Z,11.20
2019-05-01T04:20:01.473Z,11.27
2019-05-01T04:22:30.865Z,10.60
2019-05-01T04:25:00.274Z,12.60
2019-05-01T04:27:33.657Z,11.83
2019-05-01T04:30:20.851Z,11.43
2019-05-01T04:32:53.364Z,11.70
2019-05-01T04:35:41.770Z,10.33
2019-05-01T04:38:11.324Z,9.73
2019-05-01T04:40:40.599Z,11.07
2019-05-01T04:43:10.227Z,10.93
2019-05-01T04:45:39.666Z,11.33
2019-05-01T04:48:09.772Z,10.60
2019-05-01T04:50:39.163Z,10.27
2019-05-01T04:53:08.563Z,10.50
2019-05-01T04:55:38.190Z,11.87
2019-05-01T04:58:07.495Z,12.27
2019-05-01T05:00:37.015Z,11.00
2019-05-01T05:03:10.382Z,11.50
2019-05-01T05:05:39.777Z,11.23
2019-05-01T05:08:09.346Z,12.20
2019-05-01T05:10:39.191Z,11.47
2019-05-01T05:13:30.857Z,10.93
2019-05-01T05:16:16.189Z,11.63
2019-05-01T05:18:45.699Z,11.03
2019-05-01T05:21:15.534Z,10.90
2019-05-01T05:23:45.109Z,10.83
2019-05-01T05:26:15.326Z,11.13
2019-05-01T05:28:45.227Z,12.03
2019-05-01T05:31:15.127Z,10.23
2019-05-01T05:33:46.536Z,11.50
2019-05-01T05:36:17.602Z,11.30
2019-05-01T05:38:55.581Z,11.67
2019-05-01T05:41:25.080Z,10.87
2019-05-01T05:43:54.607Z,12.30
2019-05-01T05:46:23.899Z,12.00
2019-05-01T05:48:53.386Z,11.90
2019-05-01T05:51:55.786Z,12.27
2019-05-01T05:54:45.963Z,12.73
2019-05-01T05:57:23.206Z,11.47
2019-05-01T05:59:57.063Z,11.70
2019-05-01T06:02:51.942Z,11.33
2019-05-01T06:05:34.860Z,11.73
2019-05-01T06:08:20.369Z,14.30
2019-05-01T06:11:01.196Z,14.73
2019-05-01T06:13:52.524Z,16.53
2019-05-01T06:16:31.219Z,16.37
2019-05-01T06:19:28.540Z,14.97
2019-05-01T06:22:20.560Z,15.90
2019-05-01T06:24:53.943Z,16.10
2019-05-01T06:27:23.520Z,16.03
2019-05-01T06:29:53.233Z,16.20
2019-05-01T06:32:22.592Z,15.13
2019-05-01T06:34:52.030Z,15.43
2019-05-01T06:37:25.332Z,15.10
2019-05-01T06:39:52.634Z,15.47
2019-05-01T06:42:22.747Z,14.00
2019-05-01T06:45:04.171Z,16.07
2019-05-01T06:47:48.317Z,13.97
2019-05-01T06:50:32.144Z,14.33
2019-05-01T06:53:04.685Z,15.93
2019-05-01T06:55:34.163Z,16.67
2019-05-01T06:58:03.476Z,14.33
2019-05-01T07:00:32.843Z,14.10
2019-05-01T07:03:06.009Z,14.33
2019-05-01T07:05:33.709Z,14.10
2019-05-01T07:08:03.943Z,13.67
2019-05-01T07:10:43.519Z,17.07
2019-05-01T07:13:06.482Z,15.10
2019-05-01T07:15:36.149Z,17.57
2019-05-01T07:18:05.910Z,15.23
2019-05-01T07:20:54.561Z,15.50
2019-05-01T07:23:24.370Z,15.63
2019-05-01T07:25:54.300Z,14.80
2019-05-01T07:28:28.921Z,16.97
2019-05-01T07:31:01.523Z,15.80
2019-05-01T07:33:31.573Z,17.10
2019-05-01T07:36:01.024Z,16.60
2019-05-01T07:38:32.866Z,15.97
2019-05-01T07:41:03.251Z,16.57
2019-05-01T07:44:13.784Z,14.00
2019-05-01T07:47:08.781Z,15.30
2019-05-01T07:50:05.587Z,13.23
2019-05-01T07:52:35.076Z,14.50
2019-05-01T07:55:05.463Z,12.70
2019-05-01T07:57:39.517Z,12.20
2019-05-01T08:00:09.963Z,13.30
2019-05-01T08:02:39.559Z,12.67
2019-05-01T08:05:13.545Z,12.60
2019-05-01T08:07:43.719Z,14.63
2019-05-01T08:10:13.500Z,12.70
2019-05-01T08:12:45.133Z,13.90
2019-05-01T08:15:14.216Z,12.43
2019-05-01T08:17:48.849Z,13.87
2019-05-01T08:20:23.103Z,13.60
2019-05-01T08:22:52.657Z,12.07
2019-05-01T08:25:22.163Z,12.13
2019-05-01T08:28:10.546Z,13.00
2019-05-01T08:31:07.652Z,12.13
2019-05-01T08:33:54.963Z,13.53
2019-05-01T08:36:24.307Z,12.23
2019-05-01T08:38:53.819Z,13.10
2019-05-01T08:41:42.265Z,12.20
2019-05-01T08:44:11.669Z,13.47
2019-05-01T08:47:06.119Z,13.47
2019-05-01T08:49:49.856Z,14.50
2019-05-01T08:52:19.323Z,13.70
2019-05-01T08:54:48.715Z,14.80
2019-05-01T08:57:18.128Z,13.17
2019-05-01T08:59:47.564Z,14.80
2019-05-01T09:02:17.081Z,13.60
2019-05-01T09:04:46.485Z,12.27
2019-05-01T09:07:19.172Z,14.40
2019-05-01T09:09:47.456Z,14.97
2019-05-01T09:12:16.956Z,14.23
2019-05-01T09:14:46.298Z,12.70
2019-05-01T09:17:15.616Z,11.83
2019-05-01T09:19:44.937Z,12.37
2019-05-01T09:22:14.268Z,12.53
2019-05-01T09:24:43.625Z,11.90
2019-05-01T09:27:47.224Z,12.30
2019-05-01T09:30:27.010Z,11.70
2019-05-01T09:32:54.343Z,11.27
2019-05-01T09:35:24.356Z,11.80
2019-05-01T09:37:53.830Z,10.23
2019-05-01T09:40:23.163Z,10.73
2019-05-01T09:42:54.829Z,9.60
2019-05-01T09:45:23.544Z,9.33
2019-05-01T09:47:52.955Z,9.07
2019-05-01T09:50:25.794Z,9.73
2019-05-01T09:53:18.707Z,8.30
2019-05-01T09:56:10.650Z,8.83
2019-05-01T09:58:40.035Z,9.57
2019-05-01T10:01:09.669Z,9.80
2019-05-01T10:03:39.087Z,9.10
2019-05-01T10:06:08.432Z,9.40
2019-05-01T10:08:40.035Z,9.67
2019-05-01T10:11:10.113Z,9.20
2019-05-01T10:13:39.578Z,9.30
2019-05-01T10:16:09.016Z,9.33
2019-05-01T10:18:38.371Z,10.47
2019-05-01T10:21:07.651Z,9.90
2019-05-01T10:23:37.002Z,9.33
2019-05-01T10:26:08.712Z,9.97
2019-05-01T10:28:45.090Z,10.20
2019-05-01T10:31:23.069Z,8.50
2019-05-01T10:33:55.045Z,10.00
2019-05-01T10:36:34.105Z,9.67
2019-05-01T10:39:05.189Z,9.27
2019-05-01T10:41:34.494Z,8.90
2019-05-01T10:44:04.007Z,9.80
2019-05-01T10:46:33.424Z,10.23
2019-05-01T10:49:02.841Z,8.73
2019-05-01T10:51:32.248Z,8.10
2019-05-01T10:54:02.580Z,9.87
2019-05-01T10:56:32.093Z,9.37
2019-05-01T10:59:01.556Z,8.50
2019-05-01T11:01:43.379Z,8.03
2019-05-01T11:04:12.767Z,9.00
2019-05-01T11:06:42.231Z,9.73
2019-05-01T11:09:11.700Z,10.00
2019-05-01T11:11:41.168Z,9.50
2019-05-01T11:14:10.686Z,8.53
2019-05-01T11:16:40.183Z,7.50
2019-05-01T11:19:09.638Z,7.37
2019-05-01T11:21:41.780Z,8.43
2019-05-01T11:24:11.487Z,8.23
2019-05-01T11:26:41.250Z,7.33
2019-05-01T11:29:11.049Z,8.57
2019-05-01T11:32:05.321Z,7.40
2019-05-01T11:35:05.964Z,7.07
2019-05-01T11:38:00.651Z,7.50
2019-05-01T11:40:52.648Z,9.03
2019-05-01T11:43:22.277Z,7.87
2019-05-01T11:45:51.779Z,8.33
2019-05-01T11:48:25.156Z,9.40
2019-05-01T11:50:52.116Z,9.10
2019-05-01T11:53:21.538Z,7.50
2019-05-01T11:55:51.087Z,7.40
2019-05-01T11:58:20.444Z,8.37
2019-05-01T12:00:51.331Z,9.03
2019-05-01T12:03:20.593Z,9.13
2019-05-01T12:05:49.919Z,9.90
2019-05-01T12:08:19.224Z,8.63
2019-05-01T12:10:48.531Z,9.93
2019-05-01T12:13:17.812Z,10.10
2019-05-01T12:15:51.060Z,9.77
2019-05-01T12:18:20.380Z,9.63
2019-05-01T12:20:49.718Z,9.20
2019-05-01T12:23:19.037Z,10.00
2019-05-01T12:25:48.349Z,9.10
2019-05-01T12:28:18.589Z,8.40
2019-05-01T12:30:47.970Z,9.80
2019-05-01T12:33:17.372Z,9.43
2019-05-01T12:35:48.283Z,10.00
2019-05-01T12:38:19.133Z,9.80
2019-05-01T12:41:07.745Z,11.77
2019-05-01T12:43:37.116Z,7.50
2019-05-01T12:46:06.654Z,9.53
2019-05-01T12:48:35.995Z,10.27
2019-05-01T12:51:05.324Z,8.50
2019-05-01T12:53:52.231Z,7.93
2019-05-01T12:56:36.074Z,8.87
2019-05-01T12:59:05.415Z,7.50
2019-05-01T13:01:34.880Z,7.80
2019-05-01T13:04:05.022Z,9.13
2019-05-01T13:06:34.361Z,7.30
2019-05-01T13:09:04.952Z,8.37
2019-05-01T13:11:34.268Z,8.00
2019-05-01T13:14:03.572Z,9.20
2019-05-01T13:16:33.000Z,8.53
2019-05-01T13:19:02.342Z,8.80
2019-05-01T13:21:31.689Z,9.70
2019-05-01T13:24:04.544Z,9.93
2019-05-01T13:26:44.651Z,8.87
2019-05-01T13:29:23.032Z,8.87
2019-05-01T13:32:14.334Z,8.23
2019-05-01T13:34:43.674Z,9.10
2019-05-01T13:37:12.998Z,9.73
2019-05-01T13:39:42.333Z,8.47
2019-05-01T13:42:11.721Z,8.97
2019-05-01T13:44:41.078Z,8.80
2019-05-01T13:47:10.382Z,8.07
2019-05-01T13:49:39.677Z,8.10
2019-05-01T13:52:09.102Z,7.97
2019-05-01T13:54:38.464Z,9.13
2019-05-01T13:57:08.201Z,7.70
2019-05-01T13:59:37.493Z,8.13
2019-05-01T14:02:06.799Z,8.17
2019-05-01T14:04:36.450Z,8.93
2019-05-01T14:07:15.815Z,9.30
2019-05-01T14:09:37.366Z,7.30
2019-05-01T14:12:10.905Z,7.60
2019-05-01T14:14:40.502Z,7.50
2019-05-01T14:17:10.377Z,7.57
2019-05-01T14:19:41.593Z,9.43
2019-05-01T14:22:32.722Z,7.57
2019-05-01T14:25:03.484Z,8.07
2019-05-01T14:27:32.879Z,8.67
2019-05-01T14:30:04.704Z,7.63
2019-05-01T14:32:34.147Z,7.50
2019-05-01T14:35:03.700Z,7.90
2019-05-01T14:37:35.279Z,8.80
2019-05-01T14:40:04.687Z,7.30
2019-05-01T14:42:34.056Z,8.00
2019-05-01T14:45:03.400Z,7.87
2019-05-01T14:47:32.731Z,8.00
2019-05-01T14:50:02.121Z,7.37
2019-05-01T14:52:32.129Z,6.60
2019-05-01T14:55:01.603Z,6.80
2019-05-01T14:57:31.312Z,7.03
2019-05-01T15:00:00.755Z,6.63
2019-05-01T15:02:30.266Z,9.20
2019-05-01T15:04:59.764Z,9.37
2019-05-01T15:07:42.469Z,8.80
2019-05-01T15:10:01.174Z,7.77
2019-05-01T15:12:30.628Z,6.80
2019-05-01T15:15:24.611Z,7.33
2019-05-01T15:18:05.804Z,8.37
2019-05-01T15:20:35.163Z,7.33
2019-05-01T15:23:04.686Z,6.47
2019-05-01T15:25:34.061Z,6.53
2019-05-01T15:28:03.498Z,7.20
2019-05-01T15:30:52.417Z,6.53
2019-05-01T15:33:21.912Z,6.97
2019-05-01T15:35:51.309Z,7.10
2019-05-01T15:38:20.644Z,6.53
2019-05-01T15:41:00.786Z,7.37
2019-05-01T15:43:35.039Z,7.77
2019-05-01T15:46:04.590Z,7.40
2019-05-01T15:48:34.008Z,8.17
2019-05-01T15:51:03.352Z,7.07
2019-05-01T15:53:33.341Z,7.50
2019-05-01T15:56:03.518Z,7.13
2019-05-01T15:58:33.180Z,7.63
2019-05-01T16:01:02.916Z,7.73
2019-05-01T16:03:32.459Z,7.10
2019-05-01T16:06:02.151Z,6.47
2019-05-01T16:08:31.567Z,7.43
2019-05-01T16:11:10.716Z,6.70
2019-05-01T16:13:41.886Z,6.53
2019-05-01T16:16:11.582Z,6.43
2019-05-01T16:18:41.351Z,6.90
2019-05-01T16:21:11.162Z,6.87
2019-05-01T16:23:45.692Z,6.50
2019-05-01T16:26:16.020Z,6.67
2019-05-01T16:28:45.789Z,6.83
2019-05-01T16:31:15.615Z,8.03
2019-05-01T16:33:45.467Z,6.50
2019-05-01T16:36:15.269Z,7.17
2019-05-01T16:39:06.609Z,6.30
2019-05-01T16:41:35.963Z,7.00
2019-05-01T16:44:05.655Z,6.87
2019-05-01T16:46:35.009Z,7.20
2019-05-01T16:49:04.629Z,7.30
2019-05-01T16:51:34.061Z,5.50
2019-05-01T16:54:05.456Z,6.57
2019-05-01T16:56:34.753Z,6.20
2019-05-01T16:59:07.360Z,7.43
2019-05-01T17:01:47.662Z,6.50
2019-05-01T17:04:28.062Z,6.13
2019-05-01T17:07:22.719Z,6.17
2019-05-01T17:10:26.466Z,6.40
2019-05-01T17:12:56.628Z,7.40
2019-05-01T17:15:35.160Z,6.93
2019-05-01T17:18:04.553Z,6.13
2019-05-01T17:20:33.894Z,7.43
2019-05-01T17:23:05.644Z,6.97
2019-05-01T17:25:34.363Z,6.60
2019-05-01T17:28:08.244Z,7.80
2019-05-01T17:30:47.494Z,6.90
2019-05-01T17:33:20.817Z,7.27
2019-05-01T17:35:48.245Z,7.50
2019-05-01T17:38:17.687Z,6.73
2019-05-01T17:40:51.391Z,6.87
2019-05-01T17:43:18.340Z,7.90
2019-05-01T17:45:47.687Z,8.83
2019-05-01T17:48:17.083Z,10.10
2019-05-01T17:50:46.388Z,7.37
2019-05-01T17:53:15.748Z,7.90
2019-05-01T17:55:45.083Z,6.77
2019-05-01T17:58:14.498Z,6.20
2019-05-01T18:01:21.010Z,9.30
2019-05-01T18:04:07.327Z,10.10
2019-05-01T18:06:41.959Z,10.60
2019-05-01T18:09:13.682Z,10.33
2019-05-01T18:11:41.272Z,9.20
2019-05-01T18:14:11.435Z,7.93
2019-05-01T18:16:40.758Z,8.93
2019-05-01T18:19:11.137Z,7.80
2019-05-01T18:21:46.624Z,7.83
2019-05-01T18:24:35.429Z,7.20
2019-05-01T18:27:22.473Z,8.60
2019-05-01T18:29:54.121Z,8.87
2019-05-01T18:32:47.385Z,8.20
2019-05-01T18:35:16.026Z,8.73
2019-05-01T18:37:59.846Z,8.00
2019-05-01T18:40:42.228Z,7.60
2019-05-01T18:43:11.801Z,6.53
2019-05-01T18:45:52.851Z,7.70
2019-05-01T18:48:24.287Z,6.80
2019-05-01T18:50:55.345Z,6.50
2019-05-01T18:53:25.278Z,7.27
2019-05-01T18:55:54.761Z,6.87
2019-05-01T18:58:24.432Z,6.80
2019-05-01T19:00:54.002Z,6.63
2019-05-01T19:03:23.557Z,6.97
2019-05-01T19:05:53.030Z,6.70
2019-05-01T19:08:22.537Z,6.97
2019-05-01T19:10:52.100Z,6.23
2019-05-01T19:13:21.435Z,7.00
2019-05-01T19:15:51.261Z,6.53
2019-05-01T19:18:20.968Z,6.30
2019-05-01T19:20:59.280Z,7.07
2019-05-01T19:23:27.980Z,8.17
2019-05-01T19:25:56.475Z,6.30
2019-05-01T19:28:26.589Z,6.97
2019-05-01T19:30:57.606Z,7.20
2019-05-01T19:33:27.204Z,7.37
2019-05-01T19:35:56.777Z,6.60
2019-05-01T19:38:29.384Z,6.40
2019-05-01T19:40:57.906Z,6.17
2019-05-01T19:43:28.054Z,6.70
2019-05-01T19:45:58.025Z,7.20
2019-05-01T19:48:27.511Z,6.20
2019-05-01T19:50:57.146Z,5.57
2019-05-01T19:53:28.971Z,5.73
2019-05-01T19:55:58.610Z,7.17
2019-05-01T19:58:28.808Z,6.30
2019-05-01T20:01:04.189Z,5.60
2019-05-01T20:03:36.051Z,5.93
2019-05-01T20:06:06.103Z,5.87
2019-05-01T20:08:36.254Z,7.50
2019-05-01T20:11:05.606Z,6.00
2019-05-01T20:13:34.948Z,5.90
2019-05-01T20:16:06.323Z,6.77
2019-05-01T20:18:35.669Z,6.20
2019-05-01T20:21:05.245Z,6.67
2019-05-01T20:23:34.611Z,6.90
2019-05-01T20:26:03.985Z,6.80
2019-05-01T20:28:33.293Z,6.70
2019-05-01T20:31:02.672Z,7.37
2019-05-01T20:33:38.664Z,6.63
2019-05-01T20:36:06.653Z,6.90
2019-05-01T20:38:36.613Z,6.33
2019-05-01T20:41:10.382Z,5.60
2019-05-01T20:43:38.149Z,5.80
2019-05-01T20:46:08.251Z,5.93
2019-05-01T20:48:37.655Z,6.80
2019-05-01T20:51:06.950Z,6.67
2019-05-01T20:53:36.347Z,7.10
2019-05-01T20:56:24.652Z,5.90
2019-05-01T20:58:57.717Z,6.60
2019-05-01T21:01:28.247Z,5.93
2019-05-01T21:04:19.474Z,6.80
2019-05-01T21:07:08.022Z,6.83
2019-05-01T21:09:47.283Z,7.03
2019-05-01T21:12:10.006Z,6.27
2019-05-01T21:14:40.032Z,6.30
2019-05-01T21:17:13.550Z,6.20
2019-05-01T21:19:40.499Z,6.13
2019-05-01T21:22:11.267Z,6.07
2019-05-01T21:24:40.568Z,6.30
2019-05-01T21:27:09.988Z,9.50
2019-05-01T21:29:39.292Z,6.60
2019-05-01T21:32:11.059Z,5.87
2019-05-01T21:34:40.411Z,6.33
2019-05-01T21:37:09.758Z,6.50
2019-05-01T21:39:39.068Z,8.10
2019-05-01T21:42:11.615Z,6.73
2019-05-01T21:44:39.719Z,6.10
2019-05-01T21:47:10.753Z,6.93
2019-05-01T21:49:40.027Z,6.40
2019-05-01T21:52:09.458Z,6.13
2019-05-01T21:54:38.855Z,6.90
2019-05-01T21:57:12.046Z,6.27
2019-05-01T21:59:39.666Z,7.23
2019-05-01T22:02:12.060Z,6.03
2019-05-01T22:04:41.403Z,6.23
2019-05-01T22:07:10.728Z,6.10
2019-05-01T22:09:41.041Z,5.30
2019-05-01T22:12:13.035Z,7.10
2019-05-01T22:14:49.758Z,5.80
2019-05-01T22:17:33.537Z,5.90
2019-05-01T22:20:02.821Z,6.47
2019-05-01T22:22:57.736Z,6.50
2019-05-01T22:25:51.601Z,6.50
2019-05-01T22:28:25.739Z,6.53
2019-05-01T22:31:21.378Z,6.80
2019-05-01T22:33:48.888Z,8.00
2019-05-01T22:36:18.237Z,5.97
2019-05-01T22:38:47.486Z,7.00
2019-05-01T22:41:16.632Z,6.87
2019-05-01T22:43:45.822Z,7.67
2019-05-01T22:46:21.059Z,6.40
2019-05-01T22:48:50.297Z,6.40
2019-05-01T22:51:22.353Z,6.20
2019-05-01T22:53:54.806Z,5.73
2019-05-01T22:56:25.414Z,6.90
2019-05-01T22:58:55.204Z,6.70
2019-05-01T23:01:25.690Z,6.93
2019-05-01T23:03:56.779Z,5.87
2019-05-01T23:06:25.960Z,6.70
2019-05-01T23:08:55.152Z,7.20
2019-05-01T23:11:26.143Z,6.97
2019-05-01T23:13:55.456Z,6.83
2019-05-01T23:16:28.675Z,6.70
2019-05-01T23:18:57.266Z,6.70
2019-05-01T23:21:26.509Z,7.00
2019-05-01T23:23:56.721Z,7.20
2019-05-01T23:26:26.719Z,7.47
2019-05-01T23:28:55.901Z,7.00
2019-05-01T23:31:25.129Z,7.30
2019-05-01T23:33:54.366Z,7.23
2019-05-01T23:36:24.102Z,6.70
2019-05-01T23:38:53.372Z,6.60
2019-05-01T23:41:24.870Z,6.73
2019-05-01T23:43:53.730Z,6.93
2019-05-01T23:46:24.679Z,7.10
2019-05-01T23:48:53.913Z,7.00
2019-05-01T23:51:23.785Z,6.97
2019-05-01T23:53:54.123Z,6.53
2019-05-01T23:56:23.298Z,6.90
2019-05-01T23:58:53.381Z,7.10
